sensor_id;sensor_type;location;lat;lon;timestamp;P1;durP1;ratioP1;P2;durP2;ratioP2
50689;SDS011;54375;48.298;11.238;2022-12-17T00:02:38;50.50;;;25.65;;
50689;SDS011;54375;48.298;11.238;2022-12-17T00:22:40;51.80;;;26.67;;
50689;SDS011;54375;48.298;11.238;2022-12-17T00:42:43;51.28;;;25.75;;
50689;SDS011;54375;48.298;11.238;2022-12-17T01:02:52;51.42;;;27.02;;
50689;SDS011;54375;48.298;11.238;2022-12-17T01:22:54;47.53;;;24.58;;
50689;SDS011;54375;48.298;11.238;2022-12-17T01:42:56;47.95;;;27.85;;
50689;SDS011;54375;48.298;11.238;2022-12-17T02:02:59;52.33;;;25.60;;
50689;SDS011;54375;48.298;11.238;2022-12-17T02:23:03;51.90;;;28.30;;
50689;SDS011;54375;48.298;11.238;2022-12-17T02:43:14;48.85;;;25.25;;
50689;SDS011;54375;48.298;11.238;2022-12-17T03:03:18;47.78;;;25.20;;
50689;SDS011;54375;48.298;11.238;2022-12-17T03:23:21;50.10;;;25.70;;
50689;SDS011;54375;48.298;11.238;2022-12-17T03:43:23;51.58;;;26.45;;
50689;SDS011;54375;48.298;11.238;2022-12-17T04:03:25;48.50;;;24.58;;
50689;SDS011;54375;48.298;11.238;2022-12-17T04:23:28;50.58;;;24.60;;
50689;SDS011;54375;48.298;11.238;2022-12-17T04:43:30;42.10;;;20.92;;
50689;SDS011;54375;48.298;11.238;2022-12-17T05:03:33;50.20;;;23.40;;
50689;SDS011;54375;48.298;11.238;2022-12-17T05:23:35;37.35;;;18.92;;
50689;SDS011;54375;48.298;11.238;2022-12-17T05:43:37;40.45;;;19.10;;
50689;SDS011;54375;48.298;11.238;2022-12-17T06:03:40;41.05;;;17.38;;
50689;SDS011;54375;48.298;11.238;2022-12-17T06:23:42;35.42;;;16.83;;
50689;SDS011;54375;48.298;11.238;2022-12-17T06:43:44;36.65;;;17.02;;
50689;SDS011;54375;48.298;11.238;2022-12-17T07:03:46;33.50;;;16.20;;
50689;SDS011;54375;48.298;11.238;2022-12-17T07:23:49;35.85;;;16.30;;
50689;SDS011;54375;48.298;11.238;2022-12-17T07:43:52;36.47;;;18.20;;
50689;SDS011;54375;48.298;11.238;2022-12-17T08:03:54;39.30;;;17.33;;
50689;SDS011;54375;48.298;11.238;2022-12-17T08:23:57;42.10;;;21.35;;
50689;SDS011;54375;48.298;11.238;2022-12-17T08:43:59;61.83;;;27.50;;
50689;SDS011;54375;48.298;11.238;2022-12-17T09:04:02;53.97;;;24.92;;
50689;SDS011;54375;48.298;11.238;2022-12-17T09:24:05;51.03;;;27.13;;
50689;SDS011;54375;48.298;11.238;2022-12-17T09:44:11;57.55;;;30.88;;
50689;SDS011;54375;48.298;11.238;2022-12-17T10:04:20;51.75;;;28.92;;
50689;SDS011;54375;48.298;11.238;2022-12-17T10:24:29;55.88;;;32.47;;
50689;SDS011;54375;48.298;11.238;2022-12-17T10:44:32;56.75;;;32.85;;
50689;SDS011;54375;48.298;11.238;2022-12-17T11:04:36;53.00;;;31.83;;
50689;SDS011;54375;48.298;11.238;2022-12-17T11:24:41;56.60;;;32.72;;
50689;SDS011;54375;48.298;11.238;2022-12-17T11:44:49;47.05;;;29.48;;
50689;SDS011;54375;48.298;11.238;2022-12-17T12:05:00;51.80;;;28.77;;
50689;SDS011;54375;48.298;11.238;2022-12-17T12:25:18;49.60;;;29.40;;
50689;SDS011;54375;48.298;11.238;2022-12-17T12:45:32;52.15;;;31.25;;
50689;SDS011;54375;48.298;11.238;2022-12-17T13:05:42;55.67;;;32.50;;
50689;SDS011;54375;48.298;11.238;2022-12-17T13:25:45;64.50;;;36.47;;
50689;SDS011;54375;48.298;11.238;2022-12-17T13:45:47;48.72;;;29.40;;
50689;SDS011;54375;48.298;11.238;2022-12-17T14:05:52;53.65;;;31.45;;
50689;SDS011;54375;48.298;11.238;2022-12-17T14:25:54;53.00;;;30.55;;
50689;SDS011;54375;48.298;11.238;2022-12-17T14:45:58;46.03;;;25.75;;
50689;SDS011;54375;48.298;11.238;2022-12-17T15:06:03;48.42;;;27.98;;
50689;SDS011;54375;48.298;11.238;2022-12-17T15:26:08;42.47;;;23.83;;
50689;SDS011;54375;48.298;11.238;2022-12-17T15:46:12;44.72;;;23.80;;
50689;SDS011;54375;48.298;11.238;2022-12-17T16:06:14;43.15;;;21.58;;
50689;SDS011;54375;48.298;11.238;2022-12-17T16:26:16;39.28;;;19.75;;
50689;SDS011;54375;48.298;11.238;2022-12-17T16:46:26;29.02;;;15.02;;
50689;SDS011;54375;48.298;11.238;2022-12-17T17:06:29;52.05;;;25.02;;
50689;SDS011;54375;48.298;11.238;2022-12-17T17:26:33;44.03;;;19.17;;
50689;SDS011;54375;48.298;11.238;2022-12-17T17:46:35;46.78;;;20.63;;
50689;SDS011;54375;48.298;11.238;2022-12-17T18:06:39;53.05;;;21.73;;
50689;SDS011;54375;48.298;11.238;2022-12-17T18:26:43;46.53;;;21.37;;
50689;SDS011;54375;48.298;11.238;2022-12-17T18:46:46;69.90;;;28.45;;
50689;SDS011;54375;48.298;11.238;2022-12-17T19:06:49;58.15;;;26.52;;
50689;SDS011;54375;48.298;11.238;2022-12-17T19:26:52;79.28;;;36.05;;
50689;SDS011;54375;48.298;11.238;2022-12-17T19:46:54;46.55;;;21.95;;
50689;SDS011;54375;48.298;11.238;2022-12-17T20:06:57;118.63;;;42.45;;
50689;SDS011;54375;48.298;11.238;2022-12-17T20:27:00;231.13;;;67.50;;
50689;SDS011;54375;48.298;11.238;2022-12-17T20:47:02;176.48;;;46.35;;
50689;SDS011;54375;48.298;11.238;2022-12-17T21:07:04;113.43;;;35.72;;
50689;SDS011;54375;48.298;11.238;2022-12-17T21:27:07;83.97;;;32.22;;
50689;SDS011;54375;48.298;11.238;2022-12-17T21:47:09;103.45;;;37.25;;
50689;SDS011;54375;48.298;11.238;2022-12-17T22:07:12;142.00;;;50.40;;
50689;SDS011;54375;48.298;11.238;2022-12-17T22:27:15;150.73;;;56.88;;
50689;SDS011;54375;48.298;11.238;2022-12-17T22:47:17;118.63;;;46.60;;
50689;SDS011;54375;48.298;11.238;2022-12-17T23:07:19;117.40;;;42.72;;
50689;SDS011;54375;48.298;11.238;2022-12-17T23:27:21;78.40;;;31.25;;
50689;SDS011;54375;48.298;11.238;2022-12-17T23:47:24;83.88;;;31.95;;
